Accueil
METAR-TAF:

METAR-TAF

Aéroports :

Île Christmas, Kiribati

Aéroport international Cassidy

latitude: 01-59N, longitude: 157-29W, altitude: 3 m

Observation

Le bulletin a été fait il y a 52 minutes, à 13:00 UTC
Vent 6 kt de sud-est
Température 27°C
Humidité 79%
Pression 1010 hPa
Visibilité 10 km ou plus
Quelques nuages à une hauteur de 2000 ft

METAR: PLCH 211300Z 14006KT 9999 FEW020 27/23 Q1010

Heure: 03:52 (13:52 UTC)

Prévision

Le bulletin a été fait il y a 2 heures et 20 minutes, à 11:32 UTC
Prévision valable du 21 à 12 UTC au 22 à 12 UTC
Vent 10 kt de est/sud-est
Visibilité 10 km ou plus
Nuages épars à une hauteur de 1800 ft

TAF: PLCH 211132Z 2112/2212 12010KT 9999 SCT018

Observations et prévisions météorologiques de plus de 4000 aéroports (messages METAR et TAF).

Les stations disponibles sont représentées par des disques jaunes et rouges sur la carte.

Passer la souris dessus pour voir le nom de la station.

Cliquer dessus pour voir les observations et prévisions météorologiques.

Pour changer de carte: cliquez sur les boutons verts avec une croix noire pour zoomer, sur le bouton vert avec un tiret pour effectuer un zoom arrière, ou sur les flèches vertes pour les cartes adjacentes.


METAR-TAF: